createdAt,value
2022-11-02T00:01:39.595Z,97981.47
2022-11-02T00:04:06.226Z,97995.31
2022-11-02T00:06:32.894Z,97994.75
2022-11-02T00:08:59.510Z,97997.22
2022-11-02T00:11:26.255Z,98000.47
2022-11-02T00:13:52.886Z,97997.66
2022-11-02T00:16:19.520Z,97998.47
2022-11-02T00:18:46.138Z,98000.47
2022-11-02T00:21:12.751Z,98006.25
2022-11-02T00:23:39.348Z,98009.72
2022-11-02T00:26:06.010Z,98013.50
2022-11-02T00:28:32.686Z,98015.53
2022-11-02T00:30:59.269Z,98010.41
2022-11-02T00:33:25.897Z,98009.78
2022-11-02T00:35:52.512Z,98010.34
2022-11-02T00:38:19.199Z,98011.84
2022-11-02T00:40:45.805Z,98007.19
2022-11-02T00:43:12.398Z,98016.53
2022-11-02T00:45:38.985Z,98003.97
2022-11-02T00:48:05.992Z,98002.72
2022-11-02T00:50:32.850Z,98005.28
2022-11-02T00:52:59.484Z,97998.97
2022-11-02T00:55:26.101Z,97999.03
2022-11-02T00:57:52.693Z,97999.84
2022-11-02T01:00:19.310Z,97998.78
2022-11-02T01:02:46.047Z,97999.38
2022-11-02T01:05:12.798Z,98002.44
2022-11-02T01:07:39.392Z,97995.69
2022-11-02T01:10:06.055Z,97994.66
2022-11-02T01:12:32.693Z,97996.88
2022-11-02T01:14:59.282Z,97992.41
2022-11-02T01:17:25.937Z,97985.00
2022-11-02T01:19:52.551Z,97987.47
2022-11-02T01:22:19.194Z,97995.44
2022-11-02T01:24:45.781Z,97989.81
2022-11-02T01:27:12.393Z,97986.78
2022-11-02T01:29:39.009Z,97986.50
2022-11-02T01:32:05.868Z,97993.22
2022-11-02T01:34:32.510Z,97986.28
2022-11-02T01:36:59.473Z,97988.78
2022-11-02T01:39:26.064Z,97985.91
2022-11-02T01:41:52.699Z,97992.66
2022-11-02T01:44:19.293Z,97992.22
2022-11-02T01:46:45.914Z,97997.31
2022-11-02T01:49:12.505Z,97997.47
2022-11-02T01:51:39.125Z,97998.47
2022-11-02T01:54:05.782Z,97993.34
2022-11-02T01:56:32.420Z,97994.81
2022-11-02T01:58:59.027Z,97986.19
2022-11-02T02:01:25.692Z,97986.94
2022-11-02T02:03:52.340Z,97982.28
2022-11-02T02:06:18.930Z,97982.22
2022-11-02T02:08:45.536Z,97972.63
2022-11-02T02:11:12.171Z,97978.19
2022-11-02T02:13:38.784Z,97976.19
2022-11-02T02:16:05.414Z,97978.63
2022-11-02T02:18:32.028Z,97981.06
2022-11-02T02:20:58.655Z,97977.97
2022-11-02T02:23:25.252Z,97969.63
2022-11-02T02:25:51.823Z,97976.38
2022-11-02T02:28:18.450Z,97977.00
2022-11-02T02:30:45.054Z,97974.72
2022-11-02T02:33:11.689Z,97972.09
2022-11-02T02:35:38.285Z,97970.66
2022-11-02T02:38:05.245Z,97985.75
2022-11-02T02:40:32.521Z,97987.59
2022-11-02T02:42:59.186Z,97982.13
2022-11-02T02:45:25.799Z,97984.41
2022-11-02T02:47:52.419Z,97986.00
2022-11-02T02:50:19.009Z,97986.31
2022-11-02T02:52:45.594Z,97990.59
2022-11-02T02:55:12.222Z,97990.38
2022-11-02T02:57:38.853Z,97988.53
2022-11-02T03:00:05.506Z,97991.16
2022-11-02T03:02:32.248Z,97993.13
2022-11-02T03:04:58.932Z,97990.88
2022-11-02T03:07:29.575Z,97986.69
2022-11-02T03:09:59.433Z,97993.81
2022-11-02T03:12:26.081Z,97984.72
2022-11-02T03:17:36.828Z,97983.34
2022-11-02T03:20:03.457Z,97987.34
2022-11-02T03:22:30.097Z,97987.13
2022-11-02T03:24:56.707Z,97981.22
2022-11-02T03:27:23.304Z,97982.66
2022-11-02T03:29:49.938Z,97987.53
2022-11-02T03:32:16.537Z,97982.66
2022-11-02T03:34:43.155Z,97988.34
2022-11-02T03:39:36.279Z,97985.13
2022-11-02T03:42:02.870Z,97987.53
2022-11-02T03:44:29.478Z,97998.13
2022-11-02T03:46:56.056Z,97992.66
2022-11-02T03:49:22.657Z,97998.00
2022-11-02T03:51:49.307Z,98002.09
2022-11-02T03:54:15.938Z,98007.03
2022-11-02T03:56:42.579Z,98005.41
2022-11-02T03:59:09.186Z,98005.19
2022-11-02T04:01:35.876Z,98005.78
2022-11-02T04:04:02.522Z,98013.34
2022-11-02T04:06:29.113Z,98007.41
2022-11-02T04:08:55.723Z,98014.75
2022-11-02T04:11:22.304Z,98011.28
2022-11-02T04:13:48.931Z,98011.91
2022-11-02T04:16:15.541Z,98014.56
2022-11-02T04:18:42.159Z,98009.66
2022-11-02T04:21:08.746Z,98015.34
2022-11-02T04:23:35.368Z,98012.94
2022-11-02T04:26:01.962Z,98020.28
2022-11-02T04:28:28.576Z,98020.31
2022-11-02T04:30:55.198Z,98022.56
2022-11-02T04:33:21.825Z,98017.44
2022-11-02T04:35:48.431Z,98025.19
2022-11-02T04:38:15.066Z,98025.19
2022-11-02T04:40:41.683Z,98028.06
2022-11-02T04:43:08.290Z,98028.69
2022-11-02T04:45:34.873Z,98029.13
2022-11-02T04:48:01.748Z,98039.53
2022-11-02T04:50:28.564Z,98031.16
2022-11-02T04:52:55.194Z,98035.03
2022-11-02T04:58:06.292Z,98032.78
2022-11-02T05:00:33.177Z,98036.47
2022-11-02T05:02:59.809Z,98034.44
2022-11-02T05:05:26.465Z,98033.59
2022-11-02T05:07:53.063Z,98031.56
2022-11-02T05:10:19.698Z,98033.81
2022-11-02T05:12:46.341Z,98032.19
2022-11-02T05:15:12.930Z,98039.31
2022-11-02T05:17:39.551Z,98035.44
2022-11-02T05:20:06.191Z,98036.84
2022-11-02T05:22:32.776Z,98037.44
2022-11-02T05:24:59.367Z,98042.94
2022-11-02T05:27:26.184Z,98047.44
2022-11-02T05:29:52.792Z,98041.47
2022-11-02T05:32:19.406Z,98047.63
2022-11-02T05:34:46.029Z,98052.69
2022-11-02T05:39:56.679Z,98050.63
2022-11-02T05:42:23.289Z,98050.00
2022-11-02T05:44:49.880Z,98050.84
2022-11-02T05:47:16.495Z,98054.31
2022-11-02T05:49:43.112Z,98053.69
2022-11-02T05:52:09.698Z,98051.47
2022-11-02T05:54:36.334Z,98053.50
2022-11-02T05:57:02.931Z,98055.59
2022-11-02T05:59:29.546Z,98059.06
2022-11-02T06:01:56.259Z,98062.69
2022-11-02T06:04:22.900Z,98059.44
2022-11-02T06:06:49.531Z,98066.78
2022-11-02T06:09:16.156Z,98060.69
2022-11-02T06:11:42.749Z,98063.56
2022-11-02T06:14:09.371Z,98073.75
2022-11-02T06:16:35.966Z,98076.41
2022-11-02T06:19:02.706Z,98074.09
2022-11-02T06:21:29.359Z,98073.25
2022-11-02T06:23:55.981Z,98074.78
2022-11-02T06:26:22.581Z,98081.59
2022-11-02T06:28:49.206Z,98080.75
2022-11-02T06:31:15.827Z,98091.19
2022-11-02T06:33:42.418Z,98102.97
2022-11-02T06:36:09.059Z,98095.66
2022-11-02T06:38:35.712Z,98096.97
2022-11-02T06:41:02.358Z,98110.44
2022-11-02T06:43:28.987Z,98115.06
2022-11-02T06:45:55.583Z,98121.66
2022-11-02T06:48:22.255Z,98118.56
2022-11-02T06:50:48.900Z,98114.72
2022-11-02T06:53:15.591Z,98116.94
2022-11-02T06:55:42.193Z,98113.41
2022-11-02T06:58:08.837Z,98122.44
2022-11-02T07:00:35.499Z,98120.81
2022-11-02T07:03:02.276Z,98119.72
2022-11-02T07:05:29.509Z,98121.44
2022-11-02T07:07:56.123Z,98120.47
2022-11-02T07:10:22.715Z,98120.50
2022-11-02T07:12:49.337Z,98119.47
2022-11-02T07:15:15.916Z,98122.75
2022-11-02T07:17:42.514Z,98119.09
2022-11-02T07:20:09.126Z,98126.03
2022-11-02T07:22:35.750Z,98124.41
2022-11-02T07:25:02.384Z,98121.94
2022-11-02T07:27:29.167Z,98117.47
2022-11-02T07:29:55.782Z,98119.06
2022-11-02T07:32:22.406Z,98122.97
2022-11-02T07:34:49.006Z,98121.91
2022-11-02T07:37:15.614Z,98122.66
2022-11-02T07:39:42.211Z,98122.06
2022-11-02T07:42:08.795Z,98121.84
2022-11-02T07:44:35.405Z,98125.88
2022-11-02T07:47:01.991Z,98127.72
2022-11-02T07:49:28.634Z,98124.63
2022-11-02T07:51:55.226Z,98124.25
2022-11-02T07:54:21.845Z,98126.84
2022-11-02T07:56:48.464Z,98125.59
2022-11-02T07:59:15.062Z,98125.97
2022-11-02T08:01:41.745Z,98125.56
2022-11-02T08:04:08.409Z,98121.41
2022-11-02T08:06:35.060Z,98121.78
2022-11-02T08:09:01.683Z,98131.97
2022-11-02T08:11:28.283Z,98123.44
2022-11-02T08:13:54.932Z,98124.13
2022-11-02T08:16:21.546Z,98124.63
2022-11-02T08:18:48.159Z,98118.78
2022-11-02T08:21:14.749Z,98119.97
2022-11-02T08:23:41.374Z,98121.59
2022-11-02T08:26:07.997Z,98120.47
2022-11-02T08:28:34.610Z,98120.88
2022-11-02T08:31:01.233Z,98120.59
2022-11-02T08:33:27.845Z,98116.00
2022-11-02T08:35:54.487Z,98119.44
2022-11-02T08:38:21.097Z,98121.03
2022-11-02T08:40:48.102Z,98116.88
2022-11-02T08:43:14.788Z,98118.72
2022-11-02T08:48:28.002Z,98118.56
2022-11-02T08:50:54.653Z,98110.81
2022-11-02T08:53:22.410Z,98118.69
2022-11-02T08:55:49.050Z,98114.72
2022-11-02T08:58:15.698Z,98119.78
2022-11-02T09:00:42.334Z,98116.16
2022-11-02T09:03:08.967Z,98112.69
2022-11-02T09:05:35.615Z,98119.78
2022-11-02T09:08:02.507Z,98114.41
2022-11-02T09:10:29.262Z,98114.53
2022-11-02T09:12:55.854Z,98115.81
2022-11-02T09:15:22.460Z,98125.91
2022-11-02T09:17:49.057Z,98125.47
2022-11-02T09:20:15.670Z,98126.63
2022-11-02T09:22:42.268Z,98132.34
2022-11-02T09:25:08.876Z,98126.25
2022-11-02T09:27:35.471Z,98124.72
2022-11-02T09:30:02.091Z,98129.06
2022-11-02T09:32:28.681Z,98130.94
2022-11-02T09:34:55.297Z,98134.34
2022-11-02T09:37:21.943Z,98125.38
2022-11-02T09:39:48.582Z,98128.25
2022-11-02T09:42:15.170Z,98125.34
2022-11-02T09:44:41.760Z,98126.31
2022-11-02T09:49:54.946Z,98111.97
2022-11-02T09:52:21.590Z,98116.56
2022-11-02T09:54:48.268Z,98121.03
2022-11-02T09:57:14.865Z,98116.00
2022-11-02T09:59:41.520Z,98113.47
2022-11-02T10:02:08.146Z,98111.66
2022-11-02T10:04:34.730Z,98114.97
2022-11-02T15:17:53.367Z,98022.38
2022-11-02T15:20:20.030Z,98024.63
2022-11-02T15:22:47.033Z,98025.50
2022-11-02T15:25:13.831Z,98028.44
2022-11-02T15:27:40.457Z,98028.44
2022-11-02T15:30:07.148Z,98033.16
2022-11-02T15:32:33.890Z,98043.81
2022-11-02T15:35:00.573Z,98043.47
2022-11-02T15:37:27.219Z,98048.97
2022-11-02T15:39:53.845Z,98041.69
2022-11-02T15:42:20.570Z,98048.91
2022-11-02T15:44:47.177Z,98048.91
2022-11-02T15:47:14.014Z,98043.63
2022-11-02T15:49:40.663Z,98044.28
2022-11-02T15:52:07.382Z,98045.19
2022-11-02T15:54:34.046Z,98050.72
2022-11-02T15:57:00.703Z,98056.88
2022-11-02T15:59:27.321Z,98057.13
2022-11-02T16:01:54.064Z,98057.84
2022-11-02T16:04:20.879Z,98052.97
2022-11-02T16:06:47.620Z,98052.06
2022-11-02T16:09:14.268Z,98057.25
2022-11-02T16:11:40.908Z,98056.41
2022-11-02T16:14:09.321Z,98047.63
2022-11-02T16:16:36.280Z,98058.22
2022-11-02T16:19:02.937Z,98059.88
2022-11-02T16:21:29.613Z,98048.16
2022-11-02T16:23:56.300Z,98049.69
2022-11-02T16:26:22.949Z,98055.91
2022-11-02T16:28:49.769Z,98047.41
2022-11-02T16:31:19.399Z,98043.56
2022-11-02T16:33:46.529Z,98044.78
2022-11-02T16:36:13.254Z,98043.75
2022-11-02T16:38:39.893Z,98046.59
2022-11-02T16:41:06.534Z,98049.13
2022-11-02T16:43:33.160Z,98055.16
2022-11-02T16:45:59.843Z,98061.22
2022-11-02T16:48:26.475Z,98072.28
2022-11-02T16:50:53.119Z,98073.09
2022-11-02T16:53:19.768Z,98071.13
2022-11-02T16:55:46.718Z,98067.16
2022-11-02T16:58:13.621Z,98069.28
2022-11-02T17:00:40.320Z,98074.25
2022-11-02T17:03:06.980Z,98077.16
2022-11-02T17:05:33.748Z,98076.69
2022-11-02T17:08:00.440Z,98076.22
2022-11-02T17:10:27.093Z,98069.72
2022-11-02T17:12:53.763Z,98069.38
2022-11-02T17:15:20.590Z,98078.44
2022-11-02T17:17:47.348Z,98079.81
2022-11-02T17:20:14.047Z,98074.59
2022-11-02T17:22:40.924Z,98078.31
2022-11-02T17:25:07.640Z,98086.63
2022-11-02T17:27:39.213Z,98085.56
2022-11-02T17:30:08.844Z,98082.09
2022-11-02T17:32:35.573Z,98084.97
2022-11-02T17:35:02.322Z,98082.09
2022-11-02T17:37:28.980Z,98077.66
2022-11-02T17:39:55.636Z,98086.94
2022-11-02T17:42:22.380Z,98089.00
2022-11-02T17:44:49.225Z,98094.44
2022-11-02T17:47:15.877Z,98089.47
2022-11-02T17:49:42.518Z,98098.03
2022-11-02T17:52:09.239Z,98107.69
2022-11-02T17:54:35.940Z,98108.28
2022-11-02T17:57:02.596Z,98114.03
2022-11-02T17:59:29.256Z,98113.47
2022-11-02T18:01:56.148Z,98111.97
2022-11-02T18:04:22.962Z,98107.69
2022-11-02T18:06:49.669Z,98097.00
2022-11-02T18:09:16.279Z,98101.41
2022-11-02T18:11:43.184Z,98104.28
2022-11-02T18:14:09.838Z,98105.63
2022-11-02T18:16:36.618Z,98111.22
2022-11-02T18:19:03.253Z,98115.34
2022-11-02T18:21:30.116Z,98117.81
2022-11-02T18:23:56.770Z,98118.16
2022-11-02T18:26:24.903Z,98118.06
2022-11-02T18:28:51.561Z,98111.97
2022-11-02T18:31:18.206Z,98111.81
2022-11-02T18:33:44.925Z,98112.38
2022-11-02T18:36:11.577Z,98111.28
2022-11-02T18:38:38.210Z,98118.84
2022-11-02T18:41:04.875Z,98114.41
2022-11-02T18:43:31.496Z,98116.75
2022-11-02T18:45:58.390Z,98113.28
2022-11-02T18:48:25.222Z,98116.91
2022-11-02T18:50:51.897Z,98111.72
2022-11-02T18:53:18.583Z,98119.28
2022-11-02T18:55:45.328Z,98116.66
2022-11-02T18:58:11.964Z,98126.97
2022-11-02T19:00:38.634Z,98120.66
2022-11-02T19:03:05.293Z,98124.81
2022-11-02T19:05:31.924Z,98127.53
2022-11-02T19:07:58.795Z,98126.84
2022-11-02T19:10:25.445Z,98123.03
2022-11-02T19:12:52.086Z,98134.78
2022-11-02T19:15:19.921Z,98140.84
2022-11-02T19:17:46.562Z,98146.09
2022-11-02T19:20:13.206Z,98150.22
2022-11-02T19:22:39.836Z,98160.78
2022-11-02T19:25:06.488Z,98160.84
2022-11-02T19:27:33.126Z,98159.09
2022-11-02T19:29:59.787Z,98155.31
2022-11-02T19:32:26.415Z,98152.59
2022-11-02T19:34:53.060Z,98159.91
2022-11-02T19:37:19.812Z,98152.81
2022-11-02T19:39:46.479Z,98145.53
2022-11-02T19:42:13.299Z,98156.44
2022-11-02T19:44:42.771Z,98149.59
2022-11-02T19:47:09.813Z,98143.38
2022-11-02T19:49:36.546Z,98145.78
2022-11-02T19:52:03.170Z,98145.13
2022-11-02T19:54:29.899Z,98150.38
2022-11-02T19:56:56.537Z,98145.91
2022-11-02T19:59:23.421Z,98145.28
2022-11-02T20:01:50.157Z,98142.72
2022-11-02T20:04:16.821Z,98150.69
2022-11-02T20:06:43.543Z,98154.91
2022-11-02T20:09:10.405Z,98153.59
2022-11-02T20:11:37.019Z,98148.44
2022-11-02T20:14:03.734Z,98157.28
2022-11-02T20:16:30.453Z,98156.97
2022-11-02T20:18:57.095Z,98162.13
2022-11-02T20:21:28.290Z,98159.50
2022-11-02T20:23:58.127Z,98151.88
2022-11-02T20:26:24.789Z,98159.81
2022-11-02T20:28:51.432Z,98154.97
2022-11-02T20:31:18.099Z,98161.13
2022-11-02T20:33:44.788Z,98162.22
2022-11-02T20:36:11.504Z,98159.69
2022-11-02T20:38:38.175Z,98164.75
2022-11-02T20:41:04.823Z,98160.69
2022-11-02T20:43:31.458Z,98169.41
2022-11-02T20:46:11.076Z,98160.38
2022-11-02T20:48:44.765Z,98162.94
2022-11-02T20:51:11.420Z,98160.22
2022-11-02T20:53:38.193Z,98157.19
2022-11-02T20:56:04.806Z,98160.34
2022-11-02T20:58:31.488Z,98151.88
2022-11-02T21:00:58.158Z,98151.78
2022-11-02T21:03:24.826Z,98152.31
2022-11-02T21:05:51.471Z,98153.78
2022-11-02T21:08:18.086Z,98159.25
2022-11-02T21:10:44.718Z,98150.19
2022-11-02T21:13:11.363Z,98152.34
2022-11-02T21:15:38.008Z,98156.81
2022-11-02T21:18:04.637Z,98151.47
2022-11-02T21:20:34.893Z,98149.69
2022-11-02T21:23:01.814Z,98145.47
2022-11-02T21:25:28.561Z,98150.78
2022-11-02T21:27:55.243Z,98150.31
2022-11-02T21:30:21.860Z,98147.59
2022-11-02T21:32:48.507Z,98148.22
2022-11-02T21:35:15.174Z,98144.25
2022-11-02T21:37:41.788Z,98152.06
2022-11-02T21:40:08.455Z,98149.56
2022-11-02T21:42:35.077Z,98151.44
2022-11-02T21:45:01.734Z,98154.69
2022-11-02T21:47:28.381Z,98149.13
2022-11-02T21:49:55.008Z,98151.91
2022-11-02T21:52:21.645Z,98155.75
2022-11-02T21:54:48.286Z,98146.53
2022-11-02T21:57:14.980Z,98148.72
2022-11-02T21:59:41.617Z,98151.16
2022-11-02T22:02:08.349Z,98153.47
2022-11-02T22:04:35.062Z,98151.97
2022-11-02T22:07:01.711Z,98146.41
2022-11-02T22:09:28.370Z,98149.66
2022-11-02T22:11:55.000Z,98147.00
2022-11-02T22:14:21.628Z,98144.13
2022-11-02T22:16:48.288Z,98150.06
2022-11-02T22:19:14.932Z,98152.94
2022-11-02T22:21:41.604Z,98154.81
2022-11-02T22:24:08.305Z,98154.38
2022-11-02T22:26:35.006Z,98144.97
2022-11-02T22:29:01.640Z,98151.00
2022-11-02T22:31:28.299Z,98145.28
2022-11-02T22:33:54.929Z,98149.41
2022-11-02T22:36:21.568Z,98139.53
2022-11-02T22:38:48.232Z,98147.91
2022-11-02T22:41:14.988Z,98146.44
2022-11-02T22:43:41.930Z,98146.03
2022-11-02T22:46:08.547Z,98152.72
2022-11-02T22:48:35.179Z,98159.53
2022-11-02T22:51:01.822Z,98155.63
2022-11-02T22:53:28.458Z,98157.25
2022-11-02T22:55:55.098Z,98157.66
2022-11-02T22:58:21.772Z,98157.81
2022-11-02T23:00:48.509Z,98153.91
2022-11-02T23:03:15.268Z,98154.78
2022-11-02T23:05:41.887Z,98150.78
2022-11-02T23:08:08.528Z,98153.72
2022-11-02T23:10:35.169Z,98151.03
2022-11-02T23:13:01.830Z,98147.94
2022-11-02T23:15:28.451Z,98148.56
2022-11-02T23:17:55.131Z,98133.97
2022-11-02T23:20:21.788Z,98136.00
2022-11-02T23:22:48.438Z,98129.00
2022-11-02T23:25:15.219Z,98131.13
2022-11-02T23:27:42.056Z,98127.56
2022-11-02T23:30:08.879Z,98129.50
2022-11-02T23:32:35.685Z,98130.63
2022-11-02T23:35:02.424Z,98137.06
2022-11-02T23:37:29.064Z,98136.97
2022-11-02T23:39:55.913Z,98133.47
2022-11-02T23:42:22.587Z,98148.75
2022-11-02T23:44:49.226Z,98140.47
2022-11-02T23:47:15.845Z,98146.22
2022-11-02T23:49:42.518Z,98138.84
2022-11-02T23:52:09.243Z,98139.03
2022-11-02T23:54:35.882Z,98130.31
2022-11-02T23:57:02.500Z,98137.69
2022-11-02T23:59:29.137Z,98136.22
